sensor_id;sensor_type;location;lat;lon;timestamp;P1;durP1;ratioP1;P2;durP2;ratioP2
12296;SDS011;6211;49.124;9.152;2024-02-21T00:02:21;4.22;;;2.92;;
12296;SDS011;6211;49.124;9.152;2024-02-21T00:04:49;3.70;;;2.50;;
12296;SDS011;6211;49.124;9.152;2024-02-21T00:07:16;5.43;;;3.47;;
12296;SDS011;6211;49.124;9.152;2024-02-21T00:09:43;6.88;;;2.78;;
12296;SDS011;6211;49.124;9.152;2024-02-21T00:12:10;7.13;;;3.53;;
12296;SDS011;6211;49.124;9.152;2024-02-21T00:14:40;6.03;;;2.78;;
12296;SDS011;6211;49.124;9.152;2024-02-21T00:17:07;4.63;;;2.40;;
12296;SDS011;6211;49.124;9.152;2024-02-21T00:19:34;5.00;;;2.60;;
12296;SDS011;6211;49.124;9.152;2024-02-21T00:22:01;6.25;;;2.47;;
12296;SDS011;6211;49.124;9.152;2024-02-21T00:24:28;2.75;;;2.13;;
12296;SDS011;6211;49.124;9.152;2024-02-21T00:26:56;6.60;;;2.60;;
12296;SDS011;6211;49.124;9.152;2024-02-21T00:29:23;4.47;;;2.45;;
12296;SDS011;6211;49.124;9.152;2024-02-21T00:31:52;7.63;;;2.60;;
12296;SDS011;6211;49.124;9.152;2024-02-21T00:34:19;5.40;;;2.70;;
12296;SDS011;6211;49.124;9.152;2024-02-21T00:36:46;6.95;;;2.42;;
12296;SDS011;6211;49.124;9.152;2024-02-21T00:39:13;2.25;;;2.05;;
12296;SDS011;6211;49.124;9.152;2024-02-21T00:41:40;5.25;;;2.53;;
12296;SDS011;6211;49.124;9.152;2024-02-21T00:44:07;6.65;;;2.88;;
12296;SDS011;6211;49.124;9.152;2024-02-21T00:46:35;4.13;;;2.15;;
12296;SDS011;6211;49.124;9.152;2024-02-21T00:49:05;4.25;;;2.40;;
12296;SDS011;6211;49.124;9.152;2024-02-21T00:51:32;7.60;;;2.60;;
12296;SDS011;6211;49.124;9.152;2024-02-21T00:53:59;8.18;;;3.00;;
12296;SDS011;6211;49.124;9.152;2024-02-21T00:56:27;7.93;;;2.47;;
12296;SDS011;6211;49.124;9.152;2024-02-21T00:58:54;8.75;;;2.15;;
12296;SDS011;6211;49.124;9.152;2024-02-21T01:01:22;3.72;;;2.13;;
12296;SDS011;6211;49.124;9.152;2024-02-21T01:03:49;4.22;;;2.05;;
12296;SDS011;6211;49.124;9.152;2024-02-21T01:06:19;5.38;;;2.50;;
12296;SDS011;6211;49.124;9.152;2024-02-21T01:08:46;7.47;;;2.67;;
12296;SDS011;6211;49.124;9.152;2024-02-21T01:11:13;6.35;;;3.03;;
12296;SDS011;6211;49.124;9.152;2024-02-21T01:13:41;10.20;;;2.63;;
12296;SDS011;6211;49.124;9.152;2024-02-21T01:16:08;7.43;;;2.65;;
12296;SDS011;6211;49.124;9.152;2024-02-21T01:18:36;2.33;;;1.98;;
12296;SDS011;6211;49.124;9.152;2024-02-21T01:21:04;4.65;;;2.17;;
12296;SDS011;6211;49.124;9.152;2024-02-21T01:23:33;4.45;;;2.80;;
12296;SDS011;6211;49.124;9.152;2024-02-21T01:26:00;2.63;;;2.03;;
12296;SDS011;6211;49.124;9.152;2024-02-21T01:28:27;3.17;;;2.05;;
12296;SDS011;6211;49.124;9.152;2024-02-21T01:30:55;7.30;;;3.00;;
12296;SDS011;6211;49.124;9.152;2024-02-21T01:33:23;3.00;;;2.22;;
12296;SDS011;6211;49.124;9.152;2024-02-21T01:35:50;5.68;;;2.15;;
12296;SDS011;6211;49.124;9.152;2024-02-21T01:38:17;6.15;;;2.50;;
12296;SDS011;6211;49.124;9.152;2024-02-21T01:40:45;8.93;;;2.67;;
12296;SDS011;6211;49.124;9.152;2024-02-21T01:43:16;4.60;;;1.80;;
12296;SDS011;6211;49.124;9.152;2024-02-21T01:45:44;5.53;;;2.35;;
12296;SDS011;6211;49.124;9.152;2024-02-21T01:48:12;3.75;;;2.13;;
12296;SDS011;6211;49.124;9.152;2024-02-21T01:50:39;5.07;;;2.30;;
12296;SDS011;6211;49.124;9.152;2024-02-21T01:53:07;3.38;;;2.10;;
12296;SDS011;6211;49.124;9.152;2024-02-21T01:55:34;2.72;;;1.80;;
12296;SDS011;6211;49.124;9.152;2024-02-21T01:58:03;1.95;;;1.52;;
12296;SDS011;6211;49.124;9.152;2024-02-21T02:00:30;3.95;;;1.98;;
12296;SDS011;6211;49.124;9.152;2024-02-21T02:02:57;3.83;;;1.92;;
12296;SDS011;6211;49.124;9.152;2024-02-21T02:05:25;4.05;;;1.90;;
12296;SDS011;6211;49.124;9.152;2024-02-21T02:07:52;4.28;;;2.40;;
12296;SDS011;6211;49.124;9.152;2024-02-21T02:10:19;5.95;;;2.10;;
12296;SDS011;6211;49.124;9.152;2024-02-21T02:12:46;2.15;;;1.92;;
12296;SDS011;6211;49.124;9.152;2024-02-21T02:15:15;6.55;;;2.13;;
12296;SDS011;6211;49.124;9.152;2024-02-21T02:17:42;5.18;;;2.53;;
12296;SDS011;6211;49.124;9.152;2024-02-21T02:20:09;7.90;;;2.55;;
12296;SDS011;6211;49.124;9.152;2024-02-21T02:22:37;2.97;;;1.90;;
12296;SDS011;6211;49.124;9.152;2024-02-21T02:25:07;5.43;;;2.30;;
12296;SDS011;6211;49.124;9.152;2024-02-21T02:27:41;7.40;;;2.63;;
12296;SDS011;6211;49.124;9.152;2024-02-21T02:30:09;6.25;;;2.63;;
12296;SDS011;6211;49.124;9.152;2024-02-21T02:32:36;3.13;;;2.00;;
12296;SDS011;6211;49.124;9.152;2024-02-21T02:35:04;2.67;;;1.73;;
12296;SDS011;6211;49.124;9.152;2024-02-21T02:37:31;5.65;;;1.83;;
12296;SDS011;6211;49.124;9.152;2024-02-21T02:39:58;5.53;;;2.75;;
12296;SDS011;6211;49.124;9.152;2024-02-21T02:42:27;5.10;;;2.22;;
12296;SDS011;6211;49.124;9.152;2024-02-21T02:44:54;3.15;;;2.47;;
12296;SDS011;6211;49.124;9.152;2024-02-21T02:47:22;3.40;;;2.42;;
12296;SDS011;6211;49.124;9.152;2024-02-21T02:49:49;2.35;;;1.98;;
12296;SDS011;6211;49.124;9.152;2024-02-21T02:52:16;2.58;;;2.13;;
12296;SDS011;6211;49.124;9.152;2024-02-21T02:54:43;6.43;;;2.35;;
12296;SDS011;6211;49.124;9.152;2024-02-21T02:57:11;5.13;;;2.20;;
12296;SDS011;6211;49.124;9.152;2024-02-21T02:59:40;5.15;;;2.28;;
12296;SDS011;6211;49.124;9.152;2024-02-21T03:02:07;6.30;;;2.45;;
12296;SDS011;6211;49.124;9.152;2024-02-21T03:04:34;4.10;;;2.70;;
12296;SDS011;6211;49.124;9.152;2024-02-21T03:07:01;3.45;;;2.67;;
12296;SDS011;6211;49.124;9.152;2024-02-21T03:09:28;2.53;;;2.13;;
12296;SDS011;6211;49.124;9.152;2024-02-21T03:11:55;4.85;;;2.10;;
12296;SDS011;6211;49.124;9.152;2024-02-21T03:14:27;3.15;;;2.20;;
12296;SDS011;6211;49.124;9.152;2024-02-21T03:16:56;3.60;;;2.17;;
12296;SDS011;6211;49.124;9.152;2024-02-21T03:19:23;3.33;;;1.58;;
12296;SDS011;6211;49.124;9.152;2024-02-21T03:21:50;6.03;;;2.30;;
12296;SDS011;6211;49.124;9.152;2024-02-21T03:24:18;3.45;;;2.08;;
12296;SDS011;6211;49.124;9.152;2024-02-21T03:26:45;3.47;;;2.22;;
12296;SDS011;6211;49.124;9.152;2024-02-21T03:29:14;4.60;;;2.08;;
12296;SDS011;6211;49.124;9.152;2024-02-21T03:31:41;5.70;;;2.28;;
12296;SDS011;6211;49.124;9.152;2024-02-21T03:34:10;2.75;;;1.75;;
12296;SDS011;6211;49.124;9.152;2024-02-21T03:36:37;6.68;;;2.45;;
12296;SDS011;6211;49.124;9.152;2024-02-21T03:39:04;3.33;;;2.15;;
12296;SDS011;6211;49.124;9.152;2024-02-21T03:41:33;5.75;;;2.35;;
12296;SDS011;6211;49.124;9.152;2024-02-21T03:44:00;5.57;;;1.95;;
12296;SDS011;6211;49.124;9.152;2024-02-21T03:46:27;3.95;;;2.20;;
12296;SDS011;6211;49.124;9.152;2024-02-21T03:48:54;3.33;;;1.90;;
12296;SDS011;6211;49.124;9.152;2024-02-21T03:51:23;3.47;;;1.73;;
12296;SDS011;6211;49.124;9.152;2024-02-21T03:53:50;5.13;;;1.90;;
12296;SDS011;6211;49.124;9.152;2024-02-21T03:56:17;3.42;;;1.85;;
12296;SDS011;6211;49.124;9.152;2024-02-21T03:58:44;5.18;;;2.25;;
12296;SDS011;6211;49.124;9.152;2024-02-21T04:01:12;1.98;;;1.65;;
12296;SDS011;6211;49.124;9.152;2024-02-21T04:03:39;2.83;;;1.80;;
12296;SDS011;6211;49.124;9.152;2024-02-21T04:06:06;2.53;;;2.00;;
12296;SDS011;6211;49.124;9.152;2024-02-21T04:08:35;5.78;;;2.17;;
12296;SDS011;6211;49.124;9.152;2024-02-21T04:11:02;1.75;;;1.63;;
12296;SDS011;6211;49.124;9.152;2024-02-21T04:13:29;1.88;;;1.67;;
12296;SDS011;6211;49.124;9.152;2024-02-21T04:15:56;4.47;;;1.90;;
12296;SDS011;6211;49.124;9.152;2024-02-21T04:18:23;4.47;;;2.15;;
12296;SDS011;6211;49.124;9.152;2024-02-21T04:20:51;3.33;;;1.90;;
12296;SDS011;6211;49.124;9.152;2024-02-21T04:23:18;5.30;;;1.88;;
12296;SDS011;6211;49.124;9.152;2024-02-21T04:25:47;6.57;;;2.65;;
12296;SDS011;6211;49.124;9.152;2024-02-21T04:28:14;2.40;;;1.77;;
12296;SDS011;6211;49.124;9.152;2024-02-21T04:30:41;8.15;;;2.65;;
12296;SDS011;6211;49.124;9.152;2024-02-21T04:33:08;3.75;;;2.35;;
12296;SDS011;6211;49.124;9.152;2024-02-21T04:35:35;4.35;;;1.92;;
12296;SDS011;6211;49.124;9.152;2024-02-21T04:38:03;4.07;;;2.03;;
12296;SDS011;6211;49.124;9.152;2024-02-21T04:40:30;4.43;;;2.10;;
12296;SDS011;6211;49.124;9.152;2024-02-21T04:42:58;4.82;;;2.22;;
12296;SDS011;6211;49.124;9.152;2024-02-21T04:45:26;4.70;;;2.00;;
12296;SDS011;6211;49.124;9.152;2024-02-21T04:47:53;4.15;;;1.92;;
12296;SDS011;6211;49.124;9.152;2024-02-21T04:50:20;4.75;;;2.25;;
12296;SDS011;6211;49.124;9.152;2024-02-21T04:52:47;2.70;;;2.08;;
12296;SDS011;6211;49.124;9.152;2024-02-21T04:55:14;2.95;;;1.77;;
12296;SDS011;6211;49.124;9.152;2024-02-21T04:57:41;3.50;;;1.52;;
12296;SDS011;6211;49.124;9.152;2024-02-21T05:00:10;4.35;;;2.33;;
12296;SDS011;6211;49.124;9.152;2024-02-21T05:02:38;3.03;;;1.95;;
12296;SDS011;6211;49.124;9.152;2024-02-21T05:05:05;4.20;;;2.28;;
12296;SDS011;6211;49.124;9.152;2024-02-21T05:07:32;3.88;;;1.65;;
12296;SDS011;6211;49.124;9.152;2024-02-21T05:09:59;3.70;;;2.25;;
12296;SDS011;6211;49.124;9.152;2024-02-21T05:12:26;2.00;;;1.48;;
12296;SDS011;6211;49.124;9.152;2024-02-21T05:14:55;5.10;;;2.63;;
12296;SDS011;6211;49.124;9.152;2024-02-21T05:17:23;6.50;;;2.22;;
12296;SDS011;6211;49.124;9.152;2024-02-21T05:19:50;8.57;;;2.45;;
12296;SDS011;6211;49.124;9.152;2024-02-21T05:22:17;9.70;;;3.45;;
12296;SDS011;6211;49.124;9.152;2024-02-21T05:24:45;3.83;;;2.20;;
12296;SDS011;6211;49.124;9.152;2024-02-21T05:27:12;4.20;;;2.45;;
12296;SDS011;6211;49.124;9.152;2024-02-21T05:29:39;8.02;;;2.03;;
12296;SDS011;6211;49.124;9.152;2024-02-21T05:32:06;2.03;;;1.75;;
12296;SDS011;6211;49.124;9.152;2024-02-21T05:34:34;3.45;;;1.63;;
12296;SDS011;6211;49.124;9.152;2024-02-21T05:37:02;3.88;;;2.08;;
12296;SDS011;6211;49.124;9.152;2024-02-21T05:39:29;2.30;;;1.65;;
12296;SDS011;6211;49.124;9.152;2024-02-21T05:41:56;9.15;;;2.83;;
12296;SDS011;6211;49.124;9.152;2024-02-21T05:44:23;2.97;;;2.17;;
12296;SDS011;6211;49.124;9.152;2024-02-21T05:46:52;7.10;;;2.40;;
12296;SDS011;6211;49.124;9.152;2024-02-21T05:49:19;4.38;;;1.90;;
12296;SDS011;6211;49.124;9.152;2024-02-21T05:51:47;4.25;;;2.50;;
12296;SDS011;6211;49.124;9.152;2024-02-21T05:54:14;2.08;;;1.58;;
12296;SDS011;6211;49.124;9.152;2024-02-21T05:56:43;4.80;;;2.50;;
12296;SDS011;6211;49.124;9.152;2024-02-21T05:59:10;2.22;;;2.00;;
12296;SDS011;6211;49.124;9.152;2024-02-21T06:01:38;6.97;;;2.42;;
12296;SDS011;6211;49.124;9.152;2024-02-21T06:04:05;4.50;;;2.30;;
12296;SDS011;6211;49.124;9.152;2024-02-21T06:06:32;3.90;;;2.53;;
12296;SDS011;6211;49.124;9.152;2024-02-21T06:09:00;2.88;;;2.10;;
12296;SDS011;6211;49.124;9.152;2024-02-21T06:11:28;6.88;;;2.40;;
12296;SDS011;6211;49.124;9.152;2024-02-21T06:13:55;2.70;;;2.33;;
12296;SDS011;6211;49.124;9.152;2024-02-21T06:16:22;2.95;;;2.05;;
12296;SDS011;6211;49.124;9.152;2024-02-21T06:18:49;6.38;;;3.00;;
12296;SDS011;6211;49.124;9.152;2024-02-21T06:21:17;8.90;;;3.08;;
12296;SDS011;6211;49.124;9.152;2024-02-21T06:23:44;7.10;;;2.25;;
12296;SDS011;6211;49.124;9.152;2024-02-21T06:26:12;3.85;;;2.15;;
12296;SDS011;6211;49.124;9.152;2024-02-21T06:28:39;3.08;;;2.10;;
12296;SDS011;6211;49.124;9.152;2024-02-21T06:31:07;3.42;;;2.22;;
12296;SDS011;6211;49.124;9.152;2024-02-21T06:33:35;3.03;;;2.25;;
12296;SDS011;6211;49.124;9.152;2024-02-21T06:36:02;4.97;;;3.13;;
12296;SDS011;6211;49.124;9.152;2024-02-21T06:38:29;7.63;;;3.05;;
12296;SDS011;6211;49.124;9.152;2024-02-21T06:40:56;6.47;;;2.78;;
12296;SDS011;6211;49.124;9.152;2024-02-21T06:43:26;5.72;;;2.33;;
12296;SDS011;6211;49.124;9.152;2024-02-21T06:45:54;3.38;;;1.83;;
12296;SDS011;6211;49.124;9.152;2024-02-21T06:48:21;8.25;;;2.95;;
12296;SDS011;6211;49.124;9.152;2024-02-21T06:50:49;5.90;;;2.78;;
12296;SDS011;6211;49.124;9.152;2024-02-21T06:53:16;5.07;;;3.00;;
12296;SDS011;6211;49.124;9.152;2024-02-21T06:55:43;3.60;;;2.45;;
12296;SDS011;6211;49.124;9.152;2024-02-21T06:58:10;3.72;;;2.42;;
12296;SDS011;6211;49.124;9.152;2024-02-21T07:00:39;5.55;;;2.92;;
12296;SDS011;6211;49.124;9.152;2024-02-21T07:03:07;3.40;;;2.22;;
12296;SDS011;6211;49.124;9.152;2024-02-21T07:05:34;6.40;;;2.30;;
12296;SDS011;6211;49.124;9.152;2024-02-21T07:08:01;4.88;;;2.88;;
12296;SDS011;6211;49.124;9.152;2024-02-21T07:10:29;4.90;;;2.25;;
12296;SDS011;6211;49.124;9.152;2024-02-21T07:12:56;6.45;;;2.65;;
12296;SDS011;6211;49.124;9.152;2024-02-21T07:15:23;3.17;;;2.70;;
12296;SDS011;6211;49.124;9.152;2024-02-21T07:17:54;3.28;;;2.20;;
12296;SDS011;6211;49.124;9.152;2024-02-21T07:20:22;5.63;;;2.40;;
12296;SDS011;6211;49.124;9.152;2024-02-21T07:22:49;5.57;;;2.63;;
12296;SDS011;6211;49.124;9.152;2024-02-21T07:25:16;3.78;;;2.58;;
12296;SDS011;6211;49.124;9.152;2024-02-21T07:27:43;6.45;;;3.25;;
12296;SDS011;6211;49.124;9.152;2024-02-21T07:30:11;5.90;;;2.35;;
12296;SDS011;6211;49.124;9.152;2024-02-21T07:32:38;5.05;;;2.60;;
12296;SDS011;6211;49.124;9.152;2024-02-21T07:35:07;7.18;;;2.72;;
12296;SDS011;6211;49.124;9.152;2024-02-21T07:37:36;5.30;;;2.53;;
12296;SDS011;6211;49.124;9.152;2024-02-21T07:40:05;4.28;;;2.17;;
12296;SDS011;6211;49.124;9.152;2024-02-21T07:42:32;7.13;;;2.55;;
12296;SDS011;6211;49.124;9.152;2024-02-21T07:45:00;2.40;;;2.17;;
12296;SDS011;6211;49.124;9.152;2024-02-21T07:47:28;5.20;;;2.58;;
12296;SDS011;6211;49.124;9.152;2024-02-21T07:49:55;5.63;;;2.65;;
12296;SDS011;6211;49.124;9.152;2024-02-21T07:52:23;5.57;;;2.40;;
12296;SDS011;6211;49.124;9.152;2024-02-21T07:54:51;3.75;;;2.35;;
12296;SDS011;6211;49.124;9.152;2024-02-21T07:57:18;4.53;;;2.42;;
12296;SDS011;6211;49.124;9.152;2024-02-21T07:59:45;10.35;;;2.72;;
12296;SDS011;6211;49.124;9.152;2024-02-21T08:02:13;7.50;;;2.83;;
12296;SDS011;6211;49.124;9.152;2024-02-21T08:04:40;4.93;;;2.75;;
12296;SDS011;6211;49.124;9.152;2024-02-21T08:07:07;4.78;;;2.00;;
12296;SDS011;6211;49.124;9.152;2024-02-21T08:09:35;4.15;;;2.00;;
12296;SDS011;6211;49.124;9.152;2024-02-21T08:12:04;8.50;;;2.30;;
12296;SDS011;6211;49.124;9.152;2024-02-21T08:14:32;5.57;;;2.10;;
12296;SDS011;6211;49.124;9.152;2024-02-21T08:16:59;5.50;;;2.05;;
12296;SDS011;6211;49.124;9.152;2024-02-21T08:19:26;2.10;;;1.90;;
12296;SDS011;6211;49.124;9.152;2024-02-21T08:21:53;3.22;;;2.08;;
12296;SDS011;6211;49.124;9.152;2024-02-21T08:24:20;5.25;;;1.95;;
12296;SDS011;6211;49.124;9.152;2024-02-21T08:26:49;10.75;;;2.25;;
12296;SDS011;6211;49.124;9.152;2024-02-21T08:29:17;4.03;;;2.50;;
12296;SDS011;6211;49.124;9.152;2024-02-21T08:31:44;1.75;;;1.65;;
12296;SDS011;6211;49.124;9.152;2024-02-21T08:34:11;2.60;;;1.77;;
12296;SDS011;6211;49.124;9.152;2024-02-21T08:36:38;1.95;;;1.67;;
12296;SDS011;6211;49.124;9.152;2024-02-21T08:39:05;5.25;;;2.15;;
12296;SDS011;6211;49.124;9.152;2024-02-21T08:41:34;8.43;;;2.75;;
12296;SDS011;6211;49.124;9.152;2024-02-21T08:44:03;6.05;;;1.88;;
12296;SDS011;6211;49.124;9.152;2024-02-21T08:46:30;5.47;;;1.83;;
12296;SDS011;6211;49.124;9.152;2024-02-21T08:48:57;3.75;;;1.90;;
12296;SDS011;6211;49.124;9.152;2024-02-21T08:51:24;4.97;;;1.77;;
12296;SDS011;6211;49.124;9.152;2024-02-21T08:53:52;8.18;;;1.80;;
12296;SDS011;6211;49.124;9.152;2024-02-21T08:56:20;3.58;;;2.38;;
12296;SDS011;6211;49.124;9.152;2024-02-21T08:58:47;6.13;;;2.00;;
12296;SDS011;6211;49.124;9.152;2024-02-21T09:01:15;3.97;;;1.92;;
12296;SDS011;6211;49.124;9.152;2024-02-21T09:03:42;2.97;;;1.80;;
12296;SDS011;6211;49.124;9.152;2024-02-21T09:06:11;2.10;;;1.63;;
12296;SDS011;6211;49.124;9.152;2024-02-21T09:08:39;4.78;;;2.08;;
12296;SDS011;6211;49.124;9.152;2024-02-21T09:11:06;4.07;;;1.85;;
12296;SDS011;6211;49.124;9.152;2024-02-21T09:13:33;2.80;;;1.90;;
12296;SDS011;6211;49.124;9.152;2024-02-21T09:16:00;3.50;;;1.80;;
12296;SDS011;6211;49.124;9.152;2024-02-21T09:18:29;5.03;;;1.92;;
12296;SDS011;6211;49.124;9.152;2024-02-21T09:20:56;2.72;;;1.85;;
12296;SDS011;6211;49.124;9.152;2024-02-21T09:23:24;3.75;;;1.90;;
12296;SDS011;6211;49.124;9.152;2024-02-21T09:25:51;3.38;;;1.90;;
12296;SDS011;6211;49.124;9.152;2024-02-21T09:28:19;5.97;;;1.63;;
12296;SDS011;6211;49.124;9.152;2024-02-21T09:30:47;2.72;;;1.70;;
12296;SDS011;6211;49.124;9.152;2024-02-21T09:33:14;4.82;;;1.80;;
12296;SDS011;6211;49.124;9.152;2024-02-21T09:35:43;4.97;;;1.60;;
12296;SDS011;6211;49.124;9.152;2024-02-21T09:38:10;2.97;;;1.55;;
12296;SDS011;6211;49.124;9.152;2024-02-21T09:40:37;3.47;;;1.48;;
12296;SDS011;6211;49.124;9.152;2024-02-21T09:43:07;3.55;;;1.75;;
12296;SDS011;6211;49.124;9.152;2024-02-21T09:45:34;3.90;;;1.65;;
12296;SDS011;6211;49.124;9.152;2024-02-21T09:48:08;5.85;;;2.30;;
12296;SDS011;6211;49.124;9.152;2024-02-21T09:50:40;1.70;;;1.40;;
12296;SDS011;6211;49.124;9.152;2024-02-21T09:53:08;5.20;;;1.52;;
12296;SDS011;6211;49.124;9.152;2024-02-21T09:55:36;6.85;;;1.88;;
12296;SDS011;6211;49.124;9.152;2024-02-21T09:58:05;2.90;;;1.70;;
12296;SDS011;6211;49.124;9.152;2024-02-21T10:00:34;3.35;;;1.23;;
12296;SDS011;6211;49.124;9.152;2024-02-21T10:03:02;4.78;;;1.50;;
12296;SDS011;6211;49.124;9.152;2024-02-21T10:05:34;2.15;;;1.48;;
12296;SDS011;6211;49.124;9.152;2024-02-21T10:08:01;3.78;;;1.42;;
12296;SDS011;6211;49.124;9.152;2024-02-21T10:10:30;3.75;;;1.52;;
12296;SDS011;6211;49.124;9.152;2024-02-21T10:13:07;3.55;;;1.85;;
12296;SDS011;6211;49.124;9.152;2024-02-21T10:15:34;2.88;;;1.38;;
12296;SDS011;6211;49.124;9.152;2024-02-21T10:18:01;8.18;;;1.90;;
12296;SDS011;6211;49.124;9.152;2024-02-21T10:20:29;7.90;;;1.85;;
12296;SDS011;6211;49.124;9.152;2024-02-21T10:23:03;2.55;;;1.40;;
12296;SDS011;6211;49.124;9.152;2024-02-21T10:25:34;2.58;;;1.38;;
12296;SDS011;6211;49.124;9.152;2024-02-21T10:28:03;1.70;;;1.30;;
12296;SDS011;6211;49.124;9.152;2024-02-21T10:30:30;4.57;;;1.10;;
12296;SDS011;6211;49.124;9.152;2024-02-21T10:32:57;2.22;;;1.35;;
12296;SDS011;6211;49.124;9.152;2024-02-21T10:35:25;3.15;;;1.52;;
12296;SDS011;6211;49.124;9.152;2024-02-21T10:37:53;1.50;;;1.40;;
12296;SDS011;6211;49.124;9.152;2024-02-21T10:40:23;2.92;;;1.05;;
12296;SDS011;6211;49.124;9.152;2024-02-21T10:42:53;3.53;;;1.30;;
12296;SDS011;6211;49.124;9.152;2024-02-21T10:45:24;2.28;;;1.20;;
12296;SDS011;6211;49.124;9.152;2024-02-21T10:47:55;7.60;;;1.80;;
12296;SDS011;6211;49.124;9.152;2024-02-21T10:50:24;3.38;;;1.45;;
12296;SDS011;6211;49.124;9.152;2024-02-21T10:52:55;6.22;;;1.50;;
12296;SDS011;6211;49.124;9.152;2024-02-21T10:55:26;3.55;;;1.40;;
12296;SDS011;6211;49.124;9.152;2024-02-21T10:57:57;2.67;;;1.08;;
12296;SDS011;6211;49.124;9.152;2024-02-21T11:00:24;4.18;;;1.40;;
12296;SDS011;6211;49.124;9.152;2024-02-21T11:02:55;3.50;;;1.50;;
12296;SDS011;6211;49.124;9.152;2024-02-21T11:05:22;5.28;;;1.45;;
12296;SDS011;6211;49.124;9.152;2024-02-21T11:07:50;5.78;;;1.42;;
12296;SDS011;6211;49.124;9.152;2024-02-21T11:10:22;2.67;;;1.42;;
12296;SDS011;6211;49.124;9.152;2024-02-21T11:12:52;9.50;;;2.15;;
12296;SDS011;6211;49.124;9.152;2024-02-21T11:15:25;2.05;;;1.00;;
12296;SDS011;6211;49.124;9.152;2024-02-21T11:17:53;2.38;;;1.30;;
12296;SDS011;6211;49.124;9.152;2024-02-21T11:20:21;3.53;;;1.20;;
12296;SDS011;6211;49.124;9.152;2024-02-21T11:22:59;2.65;;;1.10;;
12296;SDS011;6211;49.124;9.152;2024-02-21T11:25:26;3.15;;;1.27;;
12296;SDS011;6211;49.124;9.152;2024-02-21T11:27:58;2.15;;;1.42;;
12296;SDS011;6211;49.124;9.152;2024-02-21T11:30:29;1.95;;;1.38;;
12296;SDS011;6211;49.124;9.152;2024-02-21T11:33:00;4.88;;;1.55;;
12296;SDS011;6211;49.124;9.152;2024-02-21T11:35:30;4.07;;;1.20;;
12296;SDS011;6211;49.124;9.152;2024-02-21T11:38:07;3.60;;;1.60;;
12296;SDS011;6211;49.124;9.152;2024-02-21T11:40:35;1.80;;;1.27;;
12296;SDS011;6211;49.124;9.152;2024-02-21T11:43:02;2.55;;;1.30;;
12296;SDS011;6211;49.124;9.152;2024-02-21T11:45:30;5.20;;;1.40;;
12296;SDS011;6211;49.124;9.152;2024-02-21T11:47:58;4.57;;;1.40;;
12296;SDS011;6211;49.124;9.152;2024-02-21T11:50:28;6.18;;;1.40;;
12296;SDS011;6211;49.124;9.152;2024-02-21T11:52:55;3.05;;;1.52;;
12296;SDS011;6211;49.124;9.152;2024-02-21T11:55:22;2.35;;;1.65;;
12296;SDS011;6211;49.124;9.152;2024-02-21T11:57:49;1.40;;;1.30;;
12296;SDS011;6211;49.124;9.152;2024-02-21T12:00:17;1.90;;;1.33;;
12296;SDS011;6211;49.124;9.152;2024-02-21T12:02:46;4.70;;;1.33;;
12296;SDS011;6211;49.124;9.152;2024-02-21T12:05:15;4.55;;;1.48;;
12296;SDS011;6211;49.124;9.152;2024-02-21T12:07:42;3.28;;;1.30;;
12296;SDS011;6211;49.124;9.152;2024-02-21T12:10:10;1.92;;;1.33;;
12296;SDS011;6211;49.124;9.152;2024-02-21T12:12:37;5.10;;;1.40;;
12296;SDS011;6211;49.124;9.152;2024-02-21T12:15:04;4.43;;;1.25;;
12296;SDS011;6211;49.124;9.152;2024-02-21T12:17:32;3.13;;;1.40;;
12296;SDS011;6211;49.124;9.152;2024-02-21T12:20:02;2.83;;;1.50;;
12296;SDS011;6211;49.124;9.152;2024-02-21T12:22:34;5.80;;;1.30;;
12296;SDS011;6211;49.124;9.152;2024-02-21T12:25:02;2.63;;;1.45;;
12296;SDS011;6211;49.124;9.152;2024-02-21T12:27:32;1.50;;;1.30;;
12296;SDS011;6211;49.124;9.152;2024-02-21T12:30:00;2.83;;;0.90;;
12296;SDS011;6211;49.124;9.152;2024-02-21T12:32:31;3.17;;;1.40;;
12296;SDS011;6211;49.124;9.152;2024-02-21T12:34:58;3.97;;;1.30;;
12296;SDS011;6211;49.124;9.152;2024-02-21T12:37:26;1.77;;;1.10;;
12296;SDS011;6211;49.124;9.152;2024-02-21T12:39:53;3.67;;;1.25;;
12296;SDS011;6211;49.124;9.152;2024-02-21T12:42:21;1.67;;;1.02;;
12296;SDS011;6211;49.124;9.152;2024-02-21T12:44:50;2.60;;;0.93;;
12296;SDS011;6211;49.124;9.152;2024-02-21T12:47:18;3.05;;;1.50;;
12296;SDS011;6211;49.124;9.152;2024-02-21T12:49:48;4.03;;;1.30;;
12296;SDS011;6211;49.124;9.152;2024-02-21T12:52:15;2.10;;;1.10;;
12296;SDS011;6211;49.124;9.152;2024-02-21T12:54:44;3.45;;;1.30;;
12296;SDS011;6211;49.124;9.152;2024-02-21T12:57:11;1.08;;;0.98;;
12296;SDS011;6211;49.124;9.152;2024-02-21T12:59:38;3.67;;;1.30;;
12296;SDS011;6211;49.124;9.152;2024-02-21T13:02:05;1.75;;;1.00;;
12296;SDS011;6211;49.124;9.152;2024-02-21T13:04:33;2.22;;;1.30;;
12296;SDS011;6211;49.124;9.152;2024-02-21T13:07:00;5.30;;;1.08;;
12296;SDS011;6211;49.124;9.152;2024-02-21T13:09:27;5.63;;;1.25;;
12296;SDS011;6211;49.124;9.152;2024-02-21T13:11:56;4.90;;;1.10;;
12296;SDS011;6211;49.124;9.152;2024-02-21T13:14:23;2.08;;;1.33;;
12296;SDS011;6211;49.124;9.152;2024-02-21T13:16:50;5.22;;;1.50;;
12296;SDS011;6211;49.124;9.152;2024-02-21T13:19:18;2.22;;;1.40;;
12296;SDS011;6211;49.124;9.152;2024-02-21T13:21:45;4.25;;;1.27;;
12296;SDS011;6211;49.124;9.152;2024-02-21T13:24:12;4.20;;;1.33;;
12296;SDS011;6211;49.124;9.152;2024-02-21T13:26:39;4.45;;;1.33;;
12296;SDS011;6211;49.124;9.152;2024-02-21T13:29:08;2.17;;;1.40;;
12296;SDS011;6211;49.124;9.152;2024-02-21T13:31:35;1.80;;;1.13;;
12296;SDS011;6211;49.124;9.152;2024-02-21T13:34:02;2.58;;;1.42;;
12296;SDS011;6211;49.124;9.152;2024-02-21T13:36:29;2.13;;;1.15;;
12296;SDS011;6211;49.124;9.152;2024-02-21T13:38:56;4.13;;;1.33;;
12296;SDS011;6211;49.124;9.152;2024-02-21T13:41:23;3.95;;;1.30;;
12296;SDS011;6211;49.124;9.152;2024-02-21T13:43:51;3.58;;;1.30;;
12296;SDS011;6211;49.124;9.152;2024-02-21T13:46:20;1.85;;;1.05;;
12296;SDS011;6211;49.124;9.152;2024-02-21T13:48:47;1.77;;;1.20;;
12296;SDS011;6211;49.124;9.152;2024-02-21T13:51:14;4.18;;;1.73;;
12296;SDS011;6211;49.124;9.152;2024-02-21T13:53:42;1.70;;;0.90;;
12296;SDS011;6211;49.124;9.152;2024-02-21T13:56:09;4.28;;;1.55;;
12296;SDS011;6211;49.124;9.152;2024-02-21T13:58:36;5.20;;;1.52;;
12296;SDS011;6211;49.124;9.152;2024-02-21T14:01:03;4.55;;;1.40;;
12296;SDS011;6211;49.124;9.152;2024-02-21T14:03:32;3.75;;;1.42;;
12296;SDS011;6211;49.124;9.152;2024-02-21T14:05:59;3.53;;;1.42;;
12296;SDS011;6211;49.124;9.152;2024-02-21T14:08:26;9.38;;;1.30;;
12296;SDS011;6211;49.124;9.152;2024-02-21T14:10:53;4.68;;;1.73;;
12296;SDS011;6211;49.124;9.152;2024-02-21T14:13:24;1.25;;;1.00;;
12296;SDS011;6211;49.124;9.152;2024-02-21T14:15:51;1.67;;;1.00;;
12296;SDS011;6211;49.124;9.152;2024-02-21T14:18:18;3.40;;;1.00;;
12296;SDS011;6211;49.124;9.152;2024-02-21T14:20:47;2.40;;;1.08;;
12296;SDS011;6211;49.124;9.152;2024-02-21T14:23:14;3.05;;;1.13;;
12296;SDS011;6211;49.124;9.152;2024-02-21T14:25:42;5.15;;;1.02;;
12296;SDS011;6211;49.124;9.152;2024-02-21T14:28:09;2.03;;;1.05;;
12296;SDS011;6211;49.124;9.152;2024-02-21T14:30:36;2.55;;;1.10;;
12296;SDS011;6211;49.124;9.152;2024-02-21T14:33:03;2.67;;;1.30;;
12296;SDS011;6211;49.124;9.152;2024-02-21T14:35:32;2.45;;;1.50;;
12296;SDS011;6211;49.124;9.152;2024-02-21T14:38:01;2.88;;;1.23;;
12296;SDS011;6211;49.124;9.152;2024-02-21T14:40:29;4.80;;;1.20;;
12296;SDS011;6211;49.124;9.152;2024-02-21T14:42:56;3.00;;;1.60;;
12296;SDS011;6211;49.124;9.152;2024-02-21T14:45:23;1.77;;;1.05;;
12296;SDS011;6211;49.124;9.152;2024-02-21T14:47:50;1.13;;;1.02;;
12296;SDS011;6211;49.124;9.152;2024-02-21T14:50:18;5.05;;;1.15;;
12296;SDS011;6211;49.124;9.152;2024-02-21T14:52:45;2.22;;;1.30;;
12296;SDS011;6211;49.124;9.152;2024-02-21T14:55:14;3.55;;;1.20;;
12296;SDS011;6211;49.124;9.152;2024-02-21T14:57:41;2.45;;;1.20;;
12296;SDS011;6211;49.124;9.152;2024-02-21T15:00:09;2.53;;;1.38;;
12296;SDS011;6211;49.124;9.152;2024-02-21T15:02:37;2.15;;;0.90;;
12296;SDS011;6211;49.124;9.152;2024-02-21T15:05:04;3.05;;;1.30;;